^^
Saratoga-Weather Station Historical Data
Daily Summary for March 5, 2020 Units:  English    Metric   Both
Daily Weekly Monthly Yearly Custom
  High: Low: Average:
Temperature: 45.1 °F 33.1 °F 39.4 °F
Dew Point: 39.9 °F 31.5 °F 34.9 °F
Humidity: 94% 63% 84%
Wind Speed: 8.1mph 0mph 1.6mph
Wind Gust: 11mph - -
Wind- - WSW
Pressure: 30.6 in 30.3 in -
Precipitation: 0.01 in    
Historical Graphs
 
 
Tabular Data for March 5, 2020
Time Temperature Dew Point Pressure Wind Wind Speed Wind Gust Humidity Rainfall Rate (Hourly) solar
00:00 41.4 °F 39.2 °F 30.3 in West 2.9 mph 11 mph 92% 0 in 0 W/m2
00:05 41.2 °F 39.4 °F 30.3 in West 4 mph 8 mph 93% 0 in 0 W/m2
00:10 41.2 °F 39.4 °F 30.3 in WSW 8.1 mph 9 mph 93% 0 in 0 W/m2
00:15 41.4 °F 39.6 °F 30.3 in West 6.9 mph 9 mph 93% 0 in 0 W/m2
00:20 41.7 °F 39.9 °F 30.3 in WNW 8.1 mph 9 mph 93% 0 in 0 W/m2
00:25 41.7 °F 39.9 °F 30.3 in SW 4.9 mph 8 mph 93% 0 in 0 W/m2
00:30 41.7 °F 39.9 °F 30.3 in WNW 4.9 mph 11 mph 93% 0 in 0 W/m2
00:35 41.7 °F 39.6 °F 30.3 in WSW 8.1 mph 8 mph 92% 0 in 0 W/m2
00:40 41.7 °F 39.6 °F 30.3 in WNW 2.9 mph 10 mph 92% 0 in 0 W/m2
00:45 41.5 °F 39.4 °F 30.3 in West 4 mph 8 mph 92% 0 in 0 W/m2
00:50 41.5 °F 39.7 °F 30.3 in West 4 mph 9 mph 93% 0 in 0 W/m2
00:55 41.5 °F 39.4 °F 30.3 in West 2.9 mph 8 mph 92% 0 in 0 W/m2
01:00 41.5 °F 39.4 °F 30.3 in WNW 6.9 mph 9 mph 92% 0 in 0 W/m2
01:05 41.5 °F 39.4 °F 30.3 in West 6 mph 6 mph 92% 0 in 0 W/m2
01:10 41.4 °F 39.2 °F 30.3 in West 4 mph 6 mph 92% 0 in 0 W/m2
01:15 41.2 °F 39 °F 30.3 in West 6.9 mph 7 mph 92% 0 in 0 W/m2
01:20 41.2 °F 39 °F 30.3 in WSW 8.1 mph 8 mph 92% 0 in 0 W/m2
01:25 41.2 °F 39 °F 30.3 in WSW 4.9 mph 8 mph 92% 0 in 0 W/m2
01:30 41.4 °F 39.2 °F 30.3 in WNW 2.9 mph 7 mph 92% 0 in 0 W/m2
01:35 41.4 °F 39.2 °F 30.3 in West 4 mph 7 mph 92% 0 in 0 W/m2
01:40 41.4 °F 39.2 °F 30.4 in WNW 4 mph 8 mph 92% 0 in 0 W/m2
01:45 41.4 °F 39 °F 30.4 in WSW 2.9 mph 7 mph 91% 0 in 0 W/m2
01:50 41.2 °F 38.8 °F 30.4 in WNW 2.9 mph 8 mph 91% 0 in 0 W/m2
01:55 40.8 °F 38.5 °F 30.4 in West 2 mph 4 mph 91% 0 in 0 W/m2
02:00 40.8 °F 38.7 °F 30.4 in WNW 0.9 mph 2 mph 92% 0 in 0 W/m2
02:05 40.6 °F 38.5 °F 30.4 in WNW 0.9 mph 2 mph 92% 0 in 0 W/m2
02:10 40.5 °F 38.3 °F 30.4 in WNW 2 mph 2 mph 92% 0 in 0 W/m2
02:15 40.3 °F 38.1 °F 30.4 in West 2.9 mph 4 mph 92% 0 in 0 W/m2
02:21 39.9 °F 37.8 °F 30.4 in West 2 mph 3 mph 92% 0 in 0 W/m2
02:26 39.7 °F 37.9 °F 30.4 in West 2.9 mph 7 mph 93% 0 in 0 W/m2
02:31 39.7 °F 37.9 °F 30.4 in West 2.9 mph 4 mph 93% 0 in 0 W/m2
02:36 39.7 °F 37.9 °F 30.4 in West 4 mph 6 mph 93% 0 in 0 W/m2
02:41 39.6 °F 37.8 °F 30.4 in West 2.9 mph 4 mph 93% 0 in 0 W/m2
02:46 39.6 °F 37.8 °F 30.4 in WSW 2.9 mph 4 mph 93% 0 in 0 W/m2
03:01 39.6 °F 37.8 °F 30.4 in WNW 2.9 mph 4 mph 93% 0 in 0 W/m2
03:06 39.6 °F 37.8 °F 30.4 in WNW 2.9 mph 4 mph 93% 0 in 0 W/m2
03:11 39.7 °F 37.6 °F 30.4 in SW 2.9 mph 4 mph 92% 0 in 0 W/m2
03:17 39.7 °F 37.4 °F 30.4 in WNW 2.9 mph 6 mph 91% 0 in 0 W/m2
03:22 39.6 °F 37.2 °F 30.4 in WNW 6.9 mph 7 mph 91% 0 in 0 W/m2
03:27 39.4 °F 36.7 °F 30.4 in WNW 4 mph 11 mph 90% 0 in 0 W/m2
03:32 39.4 °F 36.7 °F 30.4 in West 2 mph 9 mph 90% 0 in 0 W/m2
03:37 39.4 °F 36.5 °F 30.4 in WNW 2.9 mph 11 mph 89% 0 in 0 W/m2
03:42 39.4 °F 36.1 °F 30.4 in West 4 mph 6 mph 88% 0 in 0 W/m2
03:47 39.4 °F 36.1 °F 30.4 in WNW 4 mph 10 mph 88% 0 in 0 W/m2
03:52 39.4 °F 36.1 °F 30.4 in WNW 6 mph 6 mph 88% 0 in 0 W/m2
03:57 39.2 °F 36 °F 30.4 in WSW 2.9 mph 9 mph 88% 0 in 0 W/m2
04:02 39.4 °F 35.8 °F 30.4 in WNW 2.9 mph 7 mph 87% 0 in 0 W/m2
04:07 39.4 °F 35.6 °F 30.4 in WNW 2.9 mph 8 mph 86% 0 in 0 W/m2
04:12 39 °F 35.4 °F 30.4 in West 2.9 mph 4 mph 87% 0 in 0 W/m2
04:17 38.7 °F 35.1 °F 30.4 in WNW 2.9 mph 6 mph 87% 0 in 0 W/m2
04:22 38.5 °F 35.2 °F 30.4 in West 4 mph 4 mph 88% 0 in 0 W/m2
04:27 38.5 °F 35.6 °F 30.4 in NW 2.9 mph 6 mph 89% 0 in 0 W/m2
04:32 38.7 °F 35.4 °F 30.4 in WNW 2 mph 3 mph 88% 0 in 0 W/m2
04:37 38.8 °F 35.6 °F 30.4 in WNW 2 mph 3 mph 88% 0 in 0 W/m2
04:42 39 °F 35.8 °F 30.5 in Calm   1 mph 88% 0 in 0 W/m2
04:47 39.2 °F 35.6 °F 30.5 in North 4 mph 4 mph 87% 0 in 0 W/m2
04:52 39.6 °F 36 °F 30.5 in NW 0.9 mph 3 mph 87% 0 in 0 W/m2
04:57 39.7 °F 36 °F 30.5 in NNW 2 mph 3 mph 86% 0 in 0 W/m2
05:02 39.7 °F 36 °F 30.5 in NW 2.9 mph 4 mph 86% 0 in 0 W/m2
05:07 39.4 °F 35.6 °F 30.5 in WNW 2 mph 2 mph 86% 0 in 0 W/m2
05:12 39.2 °F 35.4 °F 30.5 in WSW 2 mph 4 mph 86% 0 in 0 W/m2
05:17 39 °F 35.2 °F 30.5 in West 4 mph 4 mph 86% 0 in 0 W/m2
05:22 39 °F 35.2 °F 30.5 in WSW 4.9 mph 5 mph 86% 0 in 0 W/m2
05:27 39 °F 35.2 °F 30.5 in WNW 2.9 mph 6 mph 86% 0 in 0 W/m2
05:32 39 °F 35.2 °F 30.5 in WSW 4 mph 8 mph 86% 0 in 0 W/m2
05:37 39 °F 35.2 °F 30.5 in WSW 2.9 mph 5 mph 86% 0 in 0 W/m2
05:42 38.8 °F 35.1 °F 30.5 in WSW 4 mph 4 mph 86% 0 in 0 W/m2
05:47 38.8 °F 35.1 °F 30.5 in WSW 2.9 mph 5 mph 86% 0 in 0 W/m2
05:52 38.7 °F 34.9 °F 30.5 in WNW 0.9 mph 3 mph 86% 0 in 0 W/m2
05:57 38.5 °F 34.7 °F 30.5 in West 2.9 mph 5 mph 86% 0 in 0 W/m2
06:03 38.5 °F 34.7 °F 30.5 in West 4 mph 6 mph 86% 0 in 0 W/m2
06:08 38.3 °F 34.5 °F 30.5 in West 2.9 mph 4 mph 86% 0 in 0 W/m2
06:13 38.3 °F 34.5 °F 30.5 in West 2.9 mph 6 mph 86% 0 in 0 W/m2
06:18 38.1 °F 34.3 °F 30.5 in West 2.9 mph 4 mph 86% 0 in 0 W/m2
06:23 38.1 °F 34.3 °F 30.5 in WNW 2 mph 2 mph 86% 0 in 0 W/m2
06:28 37.9 °F 34.2 °F 30.5 in WNW 2 mph 3 mph 86% 0 in 0 W/m2
06:33 37.9 °F 34.2 °F 30.5 in WNW 0.9 mph 2 mph 86% 0 in 0 W/m2
06:38 37.8 °F 34 °F 30.5 in Calm     86% 0 in 0 W/m2
06:43 37.6 °F 34 °F 30.5 in West 0.9 mph 2 mph 87% 0 in 0 W/m2
06:48 37.4 °F 33.8 °F 30.5 in West 0.9 mph 2 mph 87% 0 in 0 W/m2
06:53 37.2 °F 33.8 °F 30.5 in West 0.9 mph 2 mph 87% 0 in 0 W/m2
06:58 37.2 °F 34 °F 30.5 in West 2 mph 3 mph 88% 0 in 0 W/m2
07:03 37.2 °F 34 °F 30.5 in West 0.9 mph 2 mph 88% 0 in 0 W/m2
07:08 37 °F 33.8 °F 30.5 in West 0.9 mph 3 mph 88% 0 in 0 W/m2
07:13 37.2 °F 34 °F 30.5 in West 0.9 mph 6 mph 88% 0 in 0 W/m2
07:18 37.4 °F 34.2 °F 30.5 in West 0.9 mph 2 mph 88% 0 in 0 W/m2
07:23 37.4 °F 34.2 °F 30.5 in WSW 2 mph 6 mph 88% 0 in 0 W/m2
07:28 37.4 °F 34.2 °F 30.5 in WNW 0.9 mph 3 mph 88% 0 in 0 W/m2
07:33 37.4 °F 34.2 °F 30.5 in WSW 2 mph 4 mph 88% 0 in 0 W/m2
07:39 37.2 °F 34 °F 30.5 in WSW 0.9 mph 3 mph 88% 0 in 0 W/m2
07:44 37.2 °F 34 °F 30.5 in WSW 0.9 mph 5 mph 88% 0 in 0 W/m2
07:49 37.2 °F 34 °F 30.5 in West 0.9 mph 6 mph 88% 0 in 0 W/m2
07:54 37.2 °F 34 °F 30.5 in Calm   2 mph 88% 0 in 0 W/m2
07:59 37.2 °F 33.8 °F 30.5 in WSW 2.9 mph 4 mph 87% 0 in 0 W/m2
08:04 37 °F 33.6 °F 30.5 in WSW 4 mph 4 mph 87% 0 in 5 W/m2
08:09 37 °F 33.6 °F 30.5 in WSW 2 mph 4 mph 87% 0 in 7 W/m2
08:14 37 °F 33.8 °F 30.5 in WSW 2.9 mph 6 mph 88% 0 in 9 W/m2
08:19 37.4 °F 33.8 °F 30.5 in West 4 mph 6 mph 87% 0 in 11 W/m2
08:24 37.8 °F 34.2 °F 30.5 in West 6 mph 8 mph 87% 0 in 12 W/m2
08:30 37.8 °F 34 °F 30.5 in West 2 mph 3 mph 86% 0 in 12 W/m2
08:35 37.6 °F 33.8 °F 30.5 in WNW 2 mph 8 mph 86% 0 in 12 W/m2
08:40 37.6 °F 34 °F 30.5 in WNW 2 mph 3 mph 87% 0 in 14 W/m2
08:45 37.6 °F 34 °F 30.5 in West 0.9 mph 2 mph 87% 0 in 18 W/m2
08:50 37.6 °F 34 °F 30.5 in West 2 mph 2 mph 87% 0 in 19 W/m2
08:55 37.4 °F 33.8 °F 30.5 in Calm   2 mph 87% 0 in 25 W/m2
09:00 37 °F 33.6 °F 30.5 in Calm   1 mph 87% 0 in 35 W/m2
09:05 36.7 °F 33.4 °F 30.5 in WSW 2.9 mph 3 mph 88% 0 in 54 W/m2
09:10 37 °F 34.2 °F 30.5 in West 2 mph 4 mph 89% 0 in 56 W/m2
09:15 37.6 °F 34.3 °F 30.5 in West 2 mph 3 mph 88% 0 in 47 W/m2
09:20 37.8 °F 34.5 °F 30.6 in WNW 2 mph 3 mph 88% 0 in 46 W/m2
09:26 38.1 °F 34.9 °F 30.6 in West 2 mph 3 mph 88% 0 in 49 W/m2
09:31 38.5 °F 34.9 °F 30.6 in West 2 mph 3 mph 87% 0 in 54 W/m2
09:36 38.5 °F 34.9 °F 30.6 in WNW 0.9 mph 2 mph 87% 0 in 44 W/m2
09:41 38.1 °F 34.5 °F 30.6 in Calm   2 mph 87% 0 in 49 W/m2
09:46 37.9 °F 34.3 °F 30.6 in WNW 2.9 mph 3 mph 87% 0 in 74 W/m2
09:51 37.8 °F 34.5 °F 30.6 in West 0.9 mph 4 mph 88% 0 in 120 W/m2
09:56 37.8 °F 34.9 °F 30.6 in Calm   2 mph 89% 0 in 105 W/m2
10:01 37.8 °F 34.9 °F 30.6 in Calm   4 mph 89% 0 in 116 W/m2
10:06 37.9 °F 35.1 °F 30.6 in NW 6 mph 7 mph 89% 0 in 123 W/m2
10:11 38.7 °F 35.4 °F 30.6 in WNW 2.9 mph 3 mph 88% 0 in 67 W/m2
10:16 39.2 °F 35.6 °F 30.6 in NW 2 mph 3 mph 87% 0 in 56 W/m2
10:21 39.6 °F 35.8 °F 30.6 in WNW 2.9 mph 4 mph 86% 0 in 39 W/m2
10:26 39.7 °F 35.6 °F 30.6 in Calm   2 mph 85% 0 in 42 W/m2
10:31 39.9 °F 35.8 °F 30.6 in NW 4 mph 7 mph 85% 0 in 70 W/m2
10:36 40.3 °F 35.8 °F 30.6 in NW 2.9 mph 8 mph 84% 0 in 54 W/m2
10:41 40.5 °F 35.8 °F 30.6 in NNW 6 mph 6 mph 83% 0 in 46 W/m2
10:46 40.8 °F 35.8 °F 30.6 in NNW 0.9 mph 4 mph 82% 0 in 46 W/m2
10:51 41 °F 36 °F 30.6 in ENE 0.9 mph 6 mph 82% 0 in 67 W/m2
10:56 41.2 °F 36.1 °F 30.6 in NNW 6 mph 6 mph 82% 0 in 97 W/m2
11:01 41.2 °F 35.8 °F 30.6 in WNW 2.9 mph 7 mph 81% 0 in 102 W/m2
11:06 41.4 °F 35.6 °F 30.6 in WSW 2.9 mph 4 mph 80% 0 in 146 W/m2
11:11 41.5 °F 35.8 °F 30.6 in NE 4.9 mph 5 mph 80% 0 in 51 W/m2
11:16 41.7 °F 35.8 °F 30.6 in NNW 2.9 mph 5 mph 79% 0 in 54 W/m2
11:21 41.7 °F 35.8 °F 30.6 in NNW 0.9 mph 4 mph 79% 0 in 134 W/m2
11:26 42.1 °F 36 °F 30.6 in North 2.9 mph 3 mph 79% 0 in 58 W/m2
11:31 42.3 °F 36.1 °F 30.6 in West 0.9 mph 4 mph 79% 0 in 98 W/m2
11:36 42.4 °F 36.1 °F 30.6 in ENE 0.9 mph 4 mph 78% 0 in 60 W/m2
11:41 42.6 °F 36 °F 30.6 in East 0.9 mph 4 mph 77% 0 in 77 W/m2
11:46 42.8 °F 35.8 °F 30.6 in ENE 0.9 mph 2 mph 76% 0 in 62 W/m2
11:51 42.8 °F 36.1 °F 30.6 in NE 0.9 mph 5 mph 77% 0 in 49 W/m2
11:56 43 °F 36.3 °F 30.6 in North 0.9 mph 4 mph 77% 0 in 47 W/m2
12:01 43.2 °F 36.1 °F 30.6 in ENE 2.9 mph 4 mph 76% 0 in 76 W/m2
12:06 43.2 °F 35.8 °F 30.6 in ENE 4 mph 5 mph 75% 0 in 69 W/m2
12:11 43.2 °F 35.4 °F 30.6 in East 2 mph 7 mph 74% 0 in 67 W/m2
12:16 43.2 °F 35.4 °F 30.6 in SE 2 mph 8 mph 74% 0 in 65 W/m2
12:21 43.2 °F 35.4 °F 30.6 in NE 2 mph 6 mph 74% 0 in 188 W/m2
12:26 43.5 °F 35.8 °F 30.6 in SSE 0.9 mph 3 mph 74% 0 in 146 W/m2
12:31 43.7 °F 36 °F 30.6 in ENE 4 mph 6 mph 74% 0 in 102 W/m2
12:37 43.9 °F 35.8 °F 30.6 in NNW 0.9 mph 2 mph 73% 0 in 67 W/m2
12:42 44.1 °F 36 °F 30.6 in NNE 0.9 mph 1 mph 73% 0 in 54 W/m2
12:47 43.9 °F 35.8 °F 30.6 in NW 0.9 mph 2 mph 73% 0 in 79 W/m2
12:52 43.9 °F 35.8 °F 30.6 in Calm   3 mph 73% 0 in 46 W/m2
12:57 43.9 °F 35.4 °F 30.6 in NNW 2 mph 4 mph 72% 0 in 44 W/m2
13:02 43.9 °F 35.4 °F 30.6 in NW 2 mph 3 mph 72% 0 in 62 W/m2
13:07 44.1 °F 35.2 °F 30.6 in NW 4 mph 4 mph 71% 0 in 53 W/m2
13:12 44.1 °F 34.9 °F 30.6 in West 0.9 mph 6 mph 70% 0 in 39 W/m2
13:17 44.1 °F 34.9 °F 30.6 in WNW 2 mph 4 mph 70% 0 in 81 W/m2
13:22 44.2 °F 34.3 °F 30.6 in ENE 0.9 mph 9 mph 68% 0 in 49 W/m2
13:27 44.4 °F 34.9 °F 30.6 in West 2 mph 3 mph 69% 0 in 113 W/m2
13:32 44.6 °F 34.7 °F 30.6 in ESE 2.9 mph 4 mph 68% 0 in 151 W/m2
13:37 44.6 °F 34.3 °F 30.6 in Calm   2 mph 67% 0 in 84 W/m2
13:42 44.4 °F 34.5 °F 30.6 in Calm   4 mph 68% 0 in 77 W/m2
13:47 44.4 °F 34.9 °F 30.6 in North 0.9 mph 2 mph 69% 0 in 40 W/m2
13:52 44.4 °F 34.9 °F 30.6 in West 2 mph 2 mph 69% 0 in 102 W/m2
13:57 44.4 °F 33.4 °F 30.6 in Calm   2 mph 65% 0 in 77 W/m2
14:02 44.8 °F 34.2 °F 30.6 in Calm   1 mph 66% 0 in 62 W/m2
14:07 44.8 °F 33.3 °F 30.6 in West 2 mph 2 mph 64% 0 in 47 W/m2
14:12 45 °F 33.4 °F 30.6 in Calm   2 mph 64% 0 in 53 W/m2
14:17 45 °F 33.1 °F 30.6 in Calm   2 mph 63% 0 in 104 W/m2
14:22 45.1 °F 33.3 °F 30.6 in Calm   4 mph 63% 0 in 35 W/m2
14:27 45.1 °F 33.3 °F 30.6 in East 0.9 mph 2 mph 63% 0 in 40 W/m2
14:32 45.1 °F 33.6 °F 30.6 in Calm   3 mph 64% 0 in 62 W/m2
14:37 45.1 °F 33.3 °F 30.6 in East 2.9 mph 4 mph 63% 0 in 42 W/m2
14:42 45.1 °F 33.3 °F 30.6 in East 0.9 mph 1 mph 63% 0 in 58 W/m2
14:47 45 °F 33.4 °F 30.6 in SSE 0.9 mph 4 mph 64% 0 in 39 W/m2
14:52 45 °F 34 °F 30.6 in Calm   2 mph 65% 0 in 39 W/m2
14:57 44.8 °F 34.5 °F 30.6 in Calm   1 mph 67% 0 in 46 W/m2
15:02 44.4 °F 34.2 °F 30.6 in East 2 mph 2 mph 67% 0 in 33 W/m2
15:07 44.4 °F 33.8 °F 30.6 in ESE 2 mph 4 mph 66% 0 in 32 W/m2
15:12 44.8 °F 33.8 °F 30.6 in SE 2 mph 2 mph 65% 0 in 33 W/m2
15:17 44.8 °F 33.8 °F 30.6 in Calm   4 mph 65% 0 in 30 W/m2
15:22 44.8 °F 34.9 °F 30.6 in Calm     68% 0 in 30 W/m2
15:27 44.4 °F 35.2 °F 30.6 in Calm     70% 0 in 32 W/m2
15:32 44.2 °F 34.7 °F 30.6 in Calm     69% 0 in 37 W/m2
15:37 44.1 °F 35.2 °F 30.6 in ESE 0.9 mph 2 mph 71% 0 in 30 W/m2
15:42 43.9 °F 35.4 °F 30.6 in Calm     72% 0 in 28 W/m2
15:47 43.5 °F 35.1 °F 30.6 in Calm   1 mph 72% 0 in 26 W/m2
15:52 43.3 °F 35.2 °F 30.6 in Calm     73% 0 in 25 W/m2
15:57 43.2 °F 35.4 °F 30.6 in Calm     74% 0 in 25 W/m2
16:02 42.6 °F 34.9 °F 30.6 in Calm     74% 0 in 23 W/m2
16:07 42.4 °F 35.1 °F 30.6 in Calm     75% 0 in 23 W/m2
16:12 42.1 °F 34.7 °F 30.6 in Calm     75% 0 in 21 W/m2
16:17 41.9 °F 34.9 °F 30.6 in Calm     76% 0 in 21 W/m2
16:22 41.7 °F 34.7 °F 30.6 in East 0.9 mph 2 mph 76% 0 in 21 W/m2
16:27 41.5 °F 34.9 °F 30.6 in Calm   1 mph 77% 0 in 21 W/m2
16:32 41.4 °F 34.7 °F 30.6 in Calm   2 mph 77% 0 in 19 W/m2
16:37 41.4 °F 34.7 °F 30.6 in Calm     77% 0 in 19 W/m2
16:42 41.4 °F 34.7 °F 30.6 in Calm   1 mph 77% 0 in 19 W/m2
16:47 41.2 °F 34.9 °F 30.6 in Calm   1 mph 78% 0 in 18 W/m2
16:52 41 °F 34.7 °F 30.6 in Calm   1 mph 78% 0 in 16 W/m2
16:57 40.8 °F 34.5 °F 30.6 in Calm   1 mph 78% 0 in 16 W/m2
17:02 40.6 °F 34.3 °F 30.6 in East 0.9 mph 2 mph 78% 0 in 14 W/m2
17:07 40.5 °F 34.2 °F 30.6 in East 0.9 mph 1 mph 78% 0 in 14 W/m2
17:12 40.5 °F 34.5 °F 30.6 in Calm   1 mph 79% 0 in 12 W/m2
17:17 40.3 °F 34.3 °F 30.6 in East 0.9 mph 1 mph 79% 0 in 11 W/m2
17:22 40.1 °F 33.8 °F 30.6 in Calm   1 mph 78% 0 in 7 W/m2
17:27 39.9 °F 33.6 °F 30.6 in East 0.9 mph 2 mph 78% 0 in 5 W/m2
17:32 39.9 °F 33.6 °F 30.6 in SSE 0.9 mph 2 mph 78% 0 in 0 W/m2
17:37 39.7 °F 33.8 °F 30.6 in SSE 0.9 mph 2 mph 79% 0 in 0 W/m2
17:42 39.4 °F 33.4 °F 30.6 in SSE 0.9 mph 1 mph 79% 0 in 0 W/m2
17:47 39.2 °F 33.6 °F 30.6 in Calm   1 mph 80% 0 in 0 W/m2
17:52 39 °F 33.4 °F 30.6 in SSE 0.9 mph 1 mph 80% 0 in 0 W/m2
17:57 38.7 °F 33.6 °F 30.6 in Calm   1 mph 82% 0 in 0 W/m2
18:02 38.7 °F 34 °F 30.6 in Calm     83% 0 in 0 W/m2
18:08 38.7 °F 34.2 °F 30.6 in Calm   1 mph 84% 0.01 in 0 W/m2
18:13 38.7 °F 34.5 °F 30.6 in Calm     85% 0.01 in 0 W/m2
18:18 38.8 °F 35.1 °F 30.6 in WSW 0.9 mph 3 mph 86% 0.01 in 0 W/m2
18:23 39.2 °F 35.1 °F 30.6 in Calm   2 mph 85% 0.01 in 0 W/m2
18:28 39.2 °F 35.1 °F 30.6 in Calm     85% 0.01 in 0 W/m2
18:33 39 °F 34.9 °F 30.6 in Calm     85% 0.01 in 0 W/m2
18:38 38.8 °F 34.7 °F 30.6 in Calm     85% 0.01 in 0 W/m2
18:43 38.7 °F 34.5 °F 30.6 in Calm     85% 0.01 in 0 W/m2
18:48 38.5 °F 34.7 °F 30.6 in Calm     86% 0.01 in 0 W/m2
18:53 38.1 °F 34.3 °F 30.6 in WSW 0.9 mph 2 mph 86% 0.01 in 0 W/m2
18:58 37.9 °F 34.3 °F 30.6 in Calm     87% 0.01 in 0 W/m2
19:03 37.8 °F 34.2 °F 30.6 in Calm     87% 0.01 in 0 W/m2
19:08 37.6 °F 34 °F 30.6 in Calm     87% 0 in 0 W/m2
19:13 37.2 °F 33.8 °F 30.6 in Calm     87% 0 in 0 W/m2
19:18 37 °F 33.8 °F 30.6 in Calm   1 mph 88% 0 in 0 W/m2
19:23 36.9 °F 33.6 °F 30.6 in Calm     88% 0 in 0 W/m2
19:28 36.7 °F 33.8 °F 30.6 in Calm   2 mph 89% 0 in 0 W/m2
19:33 36.7 °F 33.8 °F 30.6 in Calm     89% 0 in 0 W/m2
19:38 36.3 °F 33.4 °F 30.6 in Calm     89% 0 in 0 W/m2
19:44 36.1 °F 33.3 °F 30.6 in Calm     89% 0 in 0 W/m2
19:49 36 °F 33.3 °F 30.6 in WSW 2 mph 2 mph 90% 0 in 0 W/m2
19:54 36.1 °F 33.4 °F 30.6 in Calm   1 mph 90% 0 in 0 W/m2
19:59 36.1 °F 33.4 °F 30.6 in Calm     90% 0 in 0 W/m2
20:04 36 °F 33.3 °F 30.6 in Calm   1 mph 90% 0 in 0 W/m2
20:09 35.8 °F 33.1 °F 30.6 in Calm   2 mph 90% 0 in 0 W/m2
20:14 35.8 °F 33.1 °F 30.6 in Calm     90% 0 in 0 W/m2
20:19 35.6 °F 33.3 °F 30.6 in Calm   2 mph 91% 0 in 0 W/m2
20:24 35.6 °F 33.3 °F 30.6 in Calm     91% 0 in 0 W/m2
20:29 35.4 °F 33.1 °F 30.6 in Calm     91% 0 in 0 W/m2
20:34 35.2 °F 32.9 °F 30.6 in Calm     91% 0 in 0 W/m2
20:39 35.2 °F 32.9 °F 30.6 in Calm     91% 0 in 0 W/m2
20:44 35.1 °F 32.7 °F 30.6 in Calm     91% 0 in 0 W/m2
20:49 34.9 °F 32.5 °F 30.6 in Calm     91% 0 in 0 W/m2
20:54 34.7 °F 32.4 °F 30.6 in Calm     91% 0 in 0 W/m2
20:59 34.5 °F 32.2 °F 30.6 in Calm     91% 0 in 0 W/m2
21:04 34.5 °F 32.2 °F 30.6 in Calm     91% 0 in 0 W/m2
21:09 34.3 °F 32.2 °F 30.6 in Calm     92% 0 in 0 W/m2
21:14 34.3 °F 32.2 °F 30.6 in Calm     92% 0 in 0 W/m2
21:19 34.2 °F 32 °F 30.6 in Calm     92% 0 in 0 W/m2
21:24 34.2 °F 32 °F 30.6 in Calm     92% 0 in 0 W/m2
21:29 34.2 °F 32 °F 30.6 in Calm     92% 0 in 0 W/m2
21:34 34.2 °F 32.4 °F 30.6 in Calm     93% 0 in 0 W/m2
21:39 34 °F 31.8 °F 30.6 in Calm     92% 0 in 0 W/m2
21:44 34 °F 32.2 °F 30.6 in Calm     93% 0 in 0 W/m2
21:49 34 °F 32.2 °F 30.6 in Calm     93% 0 in 0 W/m2
21:54 34 °F 32.2 °F 30.6 in Calm     93% 0 in 0 W/m2
21:59 34 °F 32.2 °F 30.6 in Calm     93% 0 in 0 W/m2
22:04 34 °F 32.2 °F 30.6 in Calm     93% 0 in 0 W/m2
22:09 34 °F 32.2 °F 30.6 in Calm     93% 0 in 0 W/m2
22:14 33.6 °F 31.8 °F 30.6 in Calm     93% 0 in 0 W/m2
22:20 33.6 °F 31.8 °F 30.6 in Calm     93% 0 in 0 W/m2
22:25 33.4 °F 31.6 °F 30.6 in Calm     93% 0 in 0 W/m2
22:30 33.4 °F 31.6 °F 30.6 in Calm     93% 0 in 0 W/m2
22:35 33.4 °F 31.6 °F 30.6 in Calm     93% 0 in 0 W/m2
22:40 33.4 °F 31.6 °F 30.6 in Calm     93% 0 in 0 W/m2
22:45 33.3 °F 31.5 °F 30.6 in Calm     93% 0 in 0 W/m2
22:50 33.3 °F 31.6 °F 30.6 in Calm   1 mph 94% 0 in 0 W/m2
22:55 33.3 °F 31.6 °F 30.6 in Calm     94% 0 in 0 W/m2
23:00 33.4 °F 31.8 °F 30.6 in Calm     94% 0 in 0 W/m2
23:05 33.4 °F 31.8 °F 30.6 in Calm     94% 0 in 0 W/m2
23:10 33.6 °F 32 °F 30.6 in Calm     94% 0 in 0 W/m2
23:15 33.4 °F 31.8 °F 30.6 in Calm     94% 0 in 0 W/m2
23:20 33.4 °F 31.8 °F 30.6 in WSW 0.9 mph 1 mph 94% 0 in 0 W/m2
23:25 33.3 °F 31.6 °F 30.6 in Calm   1 mph 94% 0 in 0 W/m2
23:30 33.3 °F 31.6 °F 30.6 in Calm     94% 0 in 0 W/m2
23:35 33.3 °F 31.6 °F 30.6 in Calm     94% 0 in 0 W/m2
23:40 33.3 °F 31.6 °F 30.6 in Calm     94% 0 in 0 W/m2
23:45 33.1 °F 31.5 °F 30.6 in Calm     94% 0 in 0 W/m2
23:50 33.1 °F 31.5 °F 30.6 in Calm     94% 0 in 0 W/m2
23:55 33.1 °F 31.5 °F 30.6 in Calm     94% 0 in 0 W/m2
Juneau County Weather
Compliments of Weather Underground - 4 mb